EmailTwitter


Surface observations / Quebec / CYUL (71627)

Regions: Quebec | Canada | USA | Europe | France | UK | Elsewhere
Station
Display
Info & Location for CYUL (71627) | Help decoding METAR

Weather Conditions observed on 2018/02/23 at 02:00 UTC at MONTREAL INTL A, QB (CYUL)

Sky conditions: few clouds.

Temperature: -7.0 Celsius.

Dewpoint: -12.0 Celsius.

Relative Humidity: 68%

Winds: Calm at 0 km/h or 0 knots.

Mean Sea level Pressure: 104.15 kilopascals.

Altimeter Setting (QNH): 104.10 kilopascals or 30.74 inches of mercury.

Horizontal visibility: 15.00 statute miles or 24.00 kilometers.

Coded METAR:

CYUL 230200Z 00000KT 15SM FEW240 M07/M12 A3074 RMK CI1 CI TR SLP415=